sensor_id;sensor_type;location;lat;lon;timestamp;temperature;humidity
4245;DHT22;2136;48.502;9.194;2024-03-23T00:54:48;10.80;66.40
4245;DHT22;2136;48.502;9.194;2024-03-23T00:57:14;10.80;66.00
4245;DHT22;2136;48.502;9.194;2024-03-23T00:59:41;10.80;66.90
4245;DHT22;2136;48.502;9.194;2024-03-23T01:02:07;10.80;66.20
4245;DHT22;2136;48.502;9.194;2024-03-23T01:04:33;10.80;66.30
4245;DHT22;2136;48.502;9.194;2024-03-23T01:06:59;10.90;66.40
4245;DHT22;2136;48.502;9.194;2024-03-23T01:09:26;10.70;66.20
4245;DHT22;2136;48.502;9.194;2024-03-23T01:11:53;10.70;66.40
4245;DHT22;2136;48.502;9.194;2024-03-23T01:14:20;10.70;66.30
4245;DHT22;2136;48.502;9.194;2024-03-23T01:16:46;10.70;66.20
4245;DHT22;2136;48.502;9.194;2024-03-23T01:19:12;10.60;65.90
4245;DHT22;2136;48.502;9.194;2024-03-23T01:21:38;10.60;65.80
4245;DHT22;2136;48.502;9.194;2024-03-23T01:24:05;10.70;66.00
4245;DHT22;2136;48.502;9.194;2024-03-23T01:26:32;10.50;66.20
4245;DHT22;2136;48.502;9.194;2024-03-23T01:29:00;10.50;66.70
4245;DHT22;2136;48.502;9.194;2024-03-23T01:31:26;10.40;67.10
4245;DHT22;2136;48.502;9.194;2024-03-23T01:33:52;10.40;67.30
4245;DHT22;2136;48.502;9.194;2024-03-23T01:36:18;10.40;67.40
4245;DHT22;2136;48.502;9.194;2024-03-23T01:38:45;10.40;67.50
4245;DHT22;2136;48.502;9.194;2024-03-23T01:41:11;10.40;67.80
4245;DHT22;2136;48.502;9.194;2024-03-23T01:43:38;10.40;68.30
4245;DHT22;2136;48.502;9.194;2024-03-23T01:46:05;10.50;70.40
4245;DHT22;2136;48.502;9.194;2024-03-23T01:48:32;10.50;69.10
4245;DHT22;2136;48.502;9.194;2024-03-23T01:50:58;10.50;69.80
4245;DHT22;2136;48.502;9.194;2024-03-23T01:53:25;10.70;69.60
4245;DHT22;2136;48.502;9.194;2024-03-23T01:55:51;10.60;70.00
4245;DHT22;2136;48.502;9.194;2024-03-23T01:58:18;10.70;70.20
4245;DHT22;2136;48.502;9.194;2024-03-23T02:00:44;10.70;70.40
4245;DHT22;2136;48.502;9.194;2024-03-23T02:03:25;10.80;70.40
4245;DHT22;2136;48.502;9.194;2024-03-23T02:05:51;10.80;70.20
4245;DHT22;2136;48.502;9.194;2024-03-23T02:08:20;10.80;70.10
4245;DHT22;2136;48.502;9.194;2024-03-23T02:10:46;10.80;70.10
4245;DHT22;2136;48.502;9.194;2024-03-23T02:13:14;10.80;70.40
4245;DHT22;2136;48.502;9.194;2024-03-23T02:15:41;10.90;70.90
4245;DHT22;2136;48.502;9.194;2024-03-23T02:18:08;10.90;71.10
4245;DHT22;2136;48.502;9.194;2024-03-23T02:20:35;11.00;71.50
4245;DHT22;2136;48.502;9.194;2024-03-23T02:23:04;11.10;71.50
4245;DHT22;2136;48.502;9.194;2024-03-23T02:25:31;11.30;71.60
4245;DHT22;2136;48.502;9.194;2024-03-23T02:27:58;11.50;71.40
4245;DHT22;2136;48.502;9.194;2024-03-23T02:30:24;11.60;71.10
4245;DHT22;2136;48.502;9.194;2024-03-23T02:32:51;11.80;70.70
4245;DHT22;2136;48.502;9.194;2024-03-23T02:35:17;12.00;70.00
4245;DHT22;2136;48.502;9.194;2024-03-23T02:37:46;12.20;69.70
4245;DHT22;2136;48.502;9.194;2024-03-23T02:40:13;12.30;69.00
4245;DHT22;2136;48.502;9.194;2024-03-23T02:42:40;12.40;68.50
4245;DHT22;2136;48.502;9.194;2024-03-23T02:45:07;12.60;68.10
4245;DHT22;2136;48.502;9.194;2024-03-23T02:47:33;12.70;67.50
4245;DHT22;2136;48.502;9.194;2024-03-23T02:49:59;12.90;66.90
4245;DHT22;2136;48.502;9.194;2024-03-23T02:52:26;12.90;66.20
4245;DHT22;2136;48.502;9.194;2024-03-23T02:54:52;13.00;65.70
4245;DHT22;2136;48.502;9.194;2024-03-23T02:57:20;13.00;65.00
4245;DHT22;2136;48.502;9.194;2024-03-23T02:59:46;13.00;64.60
4245;DHT22;2136;48.502;9.194;2024-03-23T03:02:13;12.90;64.10
4245;DHT22;2136;48.502;9.194;2024-03-23T03:04:39;12.80;63.90
4245;DHT22;2136;48.502;9.194;2024-03-23T03:07:06;12.80;63.90
4245;DHT22;2136;48.502;9.194;2024-03-23T03:09:32;12.70;64.00
4245;DHT22;2136;48.502;9.194;2024-03-23T03:12:00;12.80;64.50
4245;DHT22;2136;48.502;9.194;2024-03-23T03:14:28;12.70;64.70
4245;DHT22;2136;48.502;9.194;2024-03-23T03:16:54;12.80;64.90
4245;DHT22;2136;48.502;9.194;2024-03-23T03:19:20;12.70;64.50
4245;DHT22;2136;48.502;9.194;2024-03-23T03:21:47;12.70;64.50
4245;DHT22;2136;48.502;9.194;2024-03-23T03:24:13;12.80;64.60
4245;DHT22;2136;48.502;9.194;2024-03-23T03:26:40;12.80;64.50
4245;DHT22;2136;48.502;9.194;2024-03-23T03:29:06;12.80;64.50
4245;DHT22;2136;48.502;9.194;2024-03-23T03:31:34;12.90;64.60
4245;DHT22;2136;48.502;9.194;2024-03-23T03:34:00;12.90;64.50
4245;DHT22;2136;48.502;9.194;2024-03-23T03:36:28;13.10;64.60
4245;DHT22;2136;48.502;9.194;2024-03-23T03:38:53;13.00;65.30
4245;DHT22;2136;48.502;9.194;2024-03-23T03:41:20;13.00;64.60
4245;DHT22;2136;48.502;9.194;2024-03-23T03:43:46;13.00;64.70
4245;DHT22;2136;48.502;9.194;2024-03-23T03:46:13;13.10;65.20
4245;DHT22;2136;48.502;9.194;2024-03-23T03:48:40;13.10;65.30
4245;DHT22;2136;48.502;9.194;2024-03-23T03:51:07;13.20;65.40
4245;DHT22;2136;48.502;9.194;2024-03-23T03:53:33;13.20;65.30
4245;DHT22;2136;48.502;9.194;2024-03-23T03:56:00;13.20;65.30
4245;DHT22;2136;48.502;9.194;2024-03-23T03:58:26;13.30;65.30
4245;DHT22;2136;48.502;9.194;2024-03-23T04:00:53;13.30;65.30
4245;DHT22;2136;48.502;9.194;2024-03-23T04:03:19;13.40;65.20
4245;DHT22;2136;48.502;9.194;2024-03-23T04:05:51;13.40;65.10
4245;DHT22;2136;48.502;9.194;2024-03-23T04:08:17;13.50;65.00
4245;DHT22;2136;48.502;9.194;2024-03-23T04:10:44;13.50;64.80
4245;DHT22;2136;48.502;9.194;2024-03-23T04:13:10;13.60;64.70
4245;DHT22;2136;48.502;9.194;2024-03-23T04:15:37;13.60;64.60
4245;DHT22;2136;48.502;9.194;2024-03-23T04:18:02;13.60;64.50
4245;DHT22;2136;48.502;9.194;2024-03-23T04:20:29;13.60;64.40
4245;DHT22;2136;48.502;9.194;2024-03-23T04:22:56;13.70;64.20
4245;DHT22;2136;48.502;9.194;2024-03-23T04:25:23;13.70;64.10
4245;DHT22;2136;48.502;9.194;2024-03-23T04:27:49;13.80;63.90
4245;DHT22;2136;48.502;9.194;2024-03-23T04:30:16;13.80;63.70
4245;DHT22;2136;48.502;9.194;2024-03-23T04:32:41;13.90;63.50
4245;DHT22;2136;48.502;9.194;2024-03-23T04:35:09;13.90;63.10
4245;DHT22;2136;48.502;9.194;2024-03-23T04:37:35;13.90;62.80
4245;DHT22;2136;48.502;9.194;2024-03-23T04:40:04;14.00;62.60
4245;DHT22;2136;48.502;9.194;2024-03-23T04:42:31;14.00;62.40
4245;DHT22;2136;48.502;9.194;2024-03-23T04:44:58;14.10;61.90
4245;DHT22;2136;48.502;9.194;2024-03-23T04:47:25;14.10;61.60
4245;DHT22;2136;48.502;9.194;2024-03-23T04:49:52;14.10;61.50
4245;DHT22;2136;48.502;9.194;2024-03-23T04:52:19;14.20;61.20
4245;DHT22;2136;48.502;9.194;2024-03-23T04:54:45;14.40;61.20
4245;DHT22;2136;48.502;9.194;2024-03-23T04:57:13;14.30;60.80
4245;DHT22;2136;48.502;9.194;2024-03-23T04:59:39;14.30;60.10
4245;DHT22;2136;48.502;9.194;2024-03-23T05:02:06;14.40;60.00
4245;DHT22;2136;48.502;9.194;2024-03-23T05:04:31;14.40;59.80
4245;DHT22;2136;48.502;9.194;2024-03-23T05:06:58;14.50;59.60
4245;DHT22;2136;48.502;9.194;2024-03-23T05:09:25;14.50;59.40
4245;DHT22;2136;48.502;9.194;2024-03-23T05:11:55;14.60;59.30
4245;DHT22;2136;48.502;9.194;2024-03-23T05:14:22;14.60;59.20
4245;DHT22;2136;48.502;9.194;2024-03-23T05:16:49;14.60;59.00
4245;DHT22;2136;48.502;9.194;2024-03-23T05:19:15;14.60;59.00
4245;DHT22;2136;48.502;9.194;2024-03-23T05:21:42;14.60;59.00
4245;DHT22;2136;48.502;9.194;2024-03-23T05:24:08;14.60;59.00
4245;DHT22;2136;48.502;9.194;2024-03-23T05:26:35;14.60;59.20
4245;DHT22;2136;48.502;9.194;2024-03-23T05:29:01;14.50;59.30
4245;DHT22;2136;48.502;9.194;2024-03-23T05:31:30;14.50;59.40
4245;DHT22;2136;48.502;9.194;2024-03-23T05:33:56;14.40;59.90
4245;DHT22;2136;48.502;9.194;2024-03-23T05:36:23;14.30;60.20
4245;DHT22;2136;48.502;9.194;2024-03-23T05:38:50;14.20;61.20
4245;DHT22;2136;48.502;9.194;2024-03-23T05:41:17;14.20;62.50
4245;DHT22;2136;48.502;9.194;2024-03-23T05:43:42;14.10;64.80
4245;DHT22;2136;48.502;9.194;2024-03-23T05:46:09;13.90;66.50
4245;DHT22;2136;48.502;9.194;2024-03-23T05:48:36;13.70;68.30
4245;DHT22;2136;48.502;9.194;2024-03-23T05:51:04;13.60;70.00
4245;DHT22;2136;48.502;9.194;2024-03-23T05:53:29;13.40;71.20
4245;DHT22;2136;48.502;9.194;2024-03-23T05:56:01;13.20;72.90
4245;DHT22;2136;48.502;9.194;2024-03-23T05:58:29;13.10;74.60
4245;DHT22;2136;48.502;9.194;2024-03-23T06:01:00;13.00;76.10
4245;DHT22;2136;48.502;9.194;2024-03-23T06:03:27;12.80;77.80
4245;DHT22;2136;48.502;9.194;2024-03-23T06:05:55;12.60;79.00
4245;DHT22;2136;48.502;9.194;2024-03-23T06:08:21;12.60;80.40
4245;DHT22;2136;48.502;9.194;2024-03-23T06:10:49;12.50;81.70
4245;DHT22;2136;48.502;9.194;2024-03-23T06:13:16;12.40;82.80
4245;DHT22;2136;48.502;9.194;2024-03-23T06:15:43;12.20;84.10
4245;DHT22;2136;48.502;9.194;2024-03-23T06:18:10;12.30;85.50
4245;DHT22;2136;48.502;9.194;2024-03-23T06:20:37;12.10;86.80
4245;DHT22;2136;48.502;9.194;2024-03-23T06:23:05;12.10;87.90
4245;DHT22;2136;48.502;9.194;2024-03-23T06:25:32;12.00;87.90
4245;DHT22;2136;48.502;9.194;2024-03-23T06:27:58;12.00;88.90
4245;DHT22;2136;48.502;9.194;2024-03-23T06:30:25;12.10;89.80
4245;DHT22;2136;48.502;9.194;2024-03-23T06:32:52;11.90;90.00
4245;DHT22;2136;48.502;9.194;2024-03-23T06:35:19;11.90;89.60
4245;DHT22;2136;48.502;9.194;2024-03-23T06:37:44;11.90;89.80
4245;DHT22;2136;48.502;9.194;2024-03-23T06:40:13;11.90;88.60
4245;DHT22;2136;48.502;9.194;2024-03-23T06:42:39;11.80;87.50
4245;DHT22;2136;48.502;9.194;2024-03-23T06:45:06;11.70;86.10
4245;DHT22;2136;48.502;9.194;2024-03-23T06:47:32;11.70;85.20
4245;DHT22;2136;48.502;9.194;2024-03-23T06:50:00;11.60;83.50
4245;DHT22;2136;48.502;9.194;2024-03-23T06:52:27;11.60;81.60
4245;DHT22;2136;48.502;9.194;2024-03-23T06:54:54;11.50;79.20
4245;DHT22;2136;48.502;9.194;2024-03-23T06:57:21;11.50;78.70
4245;DHT22;2136;48.502;9.194;2024-03-23T06:59:48;11.40;79.00
4245;DHT22;2136;48.502;9.194;2024-03-23T07:02:14;11.40;78.70
4245;DHT22;2136;48.502;9.194;2024-03-23T07:04:41;11.40;79.30
4245;DHT22;2136;48.502;9.194;2024-03-23T07:07:07;11.40;79.40
4245;DHT22;2136;48.502;9.194;2024-03-23T07:09:34;11.40;79.40
4245;DHT22;2136;48.502;9.194;2024-03-23T07:12:00;11.30;79.00
4245;DHT22;2136;48.502;9.194;2024-03-23T07:14:28;11.30;79.50
4245;DHT22;2136;48.502;9.194;2024-03-23T07:16:54;11.30;79.60
4245;DHT22;2136;48.502;9.194;2024-03-23T07:19:21;11.30;79.80
4245;DHT22;2136;48.502;9.194;2024-03-23T07:21:46;11.30;79.80
4245;DHT22;2136;48.502;9.194;2024-03-23T07:24:13;11.40;79.90
4245;DHT22;2136;48.502;9.194;2024-03-23T07:26:39;11.40;79.50
4245;DHT22;2136;48.502;9.194;2024-03-23T07:29:06;11.50;79.10
4245;DHT22;2136;48.502;9.194;2024-03-23T07:31:33;11.50;77.00
4245;DHT22;2136;48.502;9.194;2024-03-23T07:34:00;11.50;76.00
4245;DHT22;2136;48.502;9.194;2024-03-23T07:36:26;11.50;76.20
4245;DHT22;2136;48.502;9.194;2024-03-23T07:38:53;11.60;76.70
4245;DHT22;2136;48.502;9.194;2024-03-23T07:41:19;11.60;76.90
4245;DHT22;2136;48.502;9.194;2024-03-23T07:43:47;11.70;77.30
4245;DHT22;2136;48.502;9.194;2024-03-23T07:46:14;11.70;76.40
4245;DHT22;2136;48.502;9.194;2024-03-23T07:48:42;11.70;75.60
4245;DHT22;2136;48.502;9.194;2024-03-23T07:51:09;11.80;76.00
4245;DHT22;2136;48.502;9.194;2024-03-23T07:53:37;11.90;75.40
4245;DHT22;2136;48.502;9.194;2024-03-23T07:56:05;11.90;74.30
4245;DHT22;2136;48.502;9.194;2024-03-23T07:58:33;11.80;73.50
4245;DHT22;2136;48.502;9.194;2024-03-23T08:01:04;12.00;74.00
4245;DHT22;2136;48.502;9.194;2024-03-23T08:03:31;11.90;74.20
4245;DHT22;2136;48.502;9.194;2024-03-23T08:05:58;11.90;74.80
4245;DHT22;2136;48.502;9.194;2024-03-23T08:08:32;12.20;74.90
4245;DHT22;2136;48.502;9.194;2024-03-23T08:10:58;12.40;73.60
4245;DHT22;2136;48.502;9.194;2024-03-23T08:13:26;12.50;71.50
4245;DHT22;2136;48.502;9.194;2024-03-23T08:15:52;12.40;70.90
4245;DHT22;2136;48.502;9.194;2024-03-23T08:18:22;12.40;68.70
4245;DHT22;2136;48.502;9.194;2024-03-23T08:20:55;12.30;67.90
4245;DHT22;2136;48.502;9.194;2024-03-23T08:23:24;12.20;67.80
4245;DHT22;2136;48.502;9.194;2024-03-23T08:25:49;12.00;66.70
4245;DHT22;2136;48.502;9.194;2024-03-23T08:28:16;11.90;66.40
4245;DHT22;2136;48.502;9.194;2024-03-23T08:30:43;11.90;66.80
4245;DHT22;2136;48.502;9.194;2024-03-23T08:33:10;12.00;66.40
4245;DHT22;2136;48.502;9.194;2024-03-23T08:35:35;12.10;67.50
4245;DHT22;2136;48.502;9.194;2024-03-23T08:38:03;12.30;66.20
4245;DHT22;2136;48.502;9.194;2024-03-23T08:40:30;12.40;63.20
4245;DHT22;2136;48.502;9.194;2024-03-23T08:42:57;12.40;61.50
4245;DHT22;2136;48.502;9.194;2024-03-23T08:45:23;12.30;60.10
4245;DHT22;2136;48.502;9.194;2024-03-23T08:47:50;12.40;60.20
4245;DHT22;2136;48.502;9.194;2024-03-23T08:50:16;12.40;59.40
4245;DHT22;2136;48.502;9.194;2024-03-23T08:52:43;12.50;59.70
4245;DHT22;2136;48.502;9.194;2024-03-23T08:55:09;12.30;58.40
4245;DHT22;2136;48.502;9.194;2024-03-23T08:57:37;12.10;57.00
4245;DHT22;2136;48.502;9.194;2024-03-23T09:00:04;12.10;57.90
4245;DHT22;2136;48.502;9.194;2024-03-23T09:02:34;11.90;57.00
4245;DHT22;2136;48.502;9.194;2024-03-23T09:05:00;11.90;56.80
4245;DHT22;2136;48.502;9.194;2024-03-23T09:07:30;11.70;56.80
4245;DHT22;2136;48.502;9.194;2024-03-23T09:09:56;11.60;57.00
4245;DHT22;2136;48.502;9.194;2024-03-23T09:12:22;11.60;57.40
4245;DHT22;2136;48.502;9.194;2024-03-23T09:14:50;11.70;57.80
4245;DHT22;2136;48.502;9.194;2024-03-23T09:17:17;11.90;58.10
4245;DHT22;2136;48.502;9.194;2024-03-23T09:19:43;12.20;58.30
4245;DHT22;2136;48.502;9.194;2024-03-23T09:22:10;12.40;56.50
4245;DHT22;2136;48.502;9.194;2024-03-23T09:24:36;12.30;55.40
4245;DHT22;2136;48.502;9.194;2024-03-23T09:27:03;12.20;55.00
4245;DHT22;2136;48.502;9.194;2024-03-23T09:29:29;12.20;55.40
4245;DHT22;2136;48.502;9.194;2024-03-23T09:31:57;12.20;54.90
4245;DHT22;2136;48.502;9.194;2024-03-23T09:34:23;12.10;54.60
4245;DHT22;2136;48.502;9.194;2024-03-23T09:36:51;12.10;54.80
4245;DHT22;2136;48.502;9.194;2024-03-23T09:39:17;12.10;54.60
4245;DHT22;2136;48.502;9.194;2024-03-23T09:41:43;12.00;54.80
4245;DHT22;2136;48.502;9.194;2024-03-23T09:44:09;12.20;55.00
4245;DHT22;2136;48.502;9.194;2024-03-23T09:46:36;12.70;54.40
4245;DHT22;2136;48.502;9.194;2024-03-23T09:49:07;13.20;54.10
4245;DHT22;2136;48.502;9.194;2024-03-23T09:51:36;14.40;57.60
4245;DHT22;2136;48.502;9.194;2024-03-23T09:54:02;16.50;57.70
4245;DHT22;2136;48.502;9.194;2024-03-23T09:56:29;18.50;55.20
4245;DHT22;2136;48.502;9.194;2024-03-23T09:59:00;20.00;49.20
4245;DHT22;2136;48.502;9.194;2024-03-23T10:01:29;21.10;46.50
4245;DHT22;2136;48.502;9.194;2024-03-23T10:03:55;21.90;46.10
4245;DHT22;2136;48.502;9.194;2024-03-23T10:06:23;23.00;40.90
4245;DHT22;2136;48.502;9.194;2024-03-23T10:08:51;24.20;39.60
4245;DHT22;2136;48.502;9.194;2024-03-23T10:11:19;25.80;39.50
4245;DHT22;2136;48.502;9.194;2024-03-23T10:13:46;27.20;36.10
4245;DHT22;2136;48.502;9.194;2024-03-23T10:16:21;28.70;33.20
4245;DHT22;2136;48.502;9.194;2024-03-23T10:18:48;30.40;32.40
4245;DHT22;2136;48.502;9.194;2024-03-23T10:21:15;30.20;30.10
4245;DHT22;2136;48.502;9.194;2024-03-23T10:23:44;28.90;29.50
4245;DHT22;2136;48.502;9.194;2024-03-23T10:26:18;27.30;30.10
4245;DHT22;2136;48.502;9.194;2024-03-23T10:28:56;26.50;31.20
4245;DHT22;2136;48.502;9.194;2024-03-23T10:31:25;26.20;32.00
4245;DHT22;2136;48.502;9.194;2024-03-23T10:33:52;28.20;33.80
4245;DHT22;2136;48.502;9.194;2024-03-23T10:36:20;31.10;32.90
4245;DHT22;2136;48.502;9.194;2024-03-23T10:38:50;33.80;29.70
4245;DHT22;2136;48.502;9.194;2024-03-23T10:41:16;35.30;25.80
4245;DHT22;2136;48.502;9.194;2024-03-23T10:43:44;35.80;25.00
4245;DHT22;2136;48.502;9.194;2024-03-23T10:46:10;37.10;25.50
4245;DHT22;2136;48.502;9.194;2024-03-23T10:48:37;36.30;22.10
4245;DHT22;2136;48.502;9.194;2024-03-23T10:51:04;34.50;22.50
4245;DHT22;2136;48.502;9.194;2024-03-23T10:53:33;32.60;22.10
4245;DHT22;2136;48.502;9.194;2024-03-23T10:56:01;30.40;23.20
4245;DHT22;2136;48.502;9.194;2024-03-23T10:58:31;28.80;25.00
4245;DHT22;2136;48.502;9.194;2024-03-23T11:00:58;27.30;25.90
4245;DHT22;2136;48.502;9.194;2024-03-23T11:03:35;25.60;26.60
4245;DHT22;2136;48.502;9.194;2024-03-23T11:06:02;23.80;28.00
4245;DHT22;2136;48.502;9.194;2024-03-23T11:08:36;21.90;31.60
4245;DHT22;2136;48.502;9.194;2024-03-23T11:11:14;20.10;34.40
4245;DHT22;2136;48.502;9.194;2024-03-23T11:13:41;18.40;36.50
4245;DHT22;2136;48.502;9.194;2024-03-23T11:16:17;17.00;38.40
4245;DHT22;2136;48.502;9.194;2024-03-23T11:18:47;15.90;40.60
4245;DHT22;2136;48.502;9.194;2024-03-23T11:21:51;14.90;42.40
4245;DHT22;2136;48.502;9.194;2024-03-23T11:24:19;14.10;45.10
4245;DHT22;2136;48.502;9.194;2024-03-23T11:26:47;13.60;46.50
4245;DHT22;2136;48.502;9.194;2024-03-23T11:29:15;13.40;48.20
4245;DHT22;2136;48.502;9.194;2024-03-23T11:31:46;13.30;49.10
4245;DHT22;2136;48.502;9.194;2024-03-23T11:34:13;13.20;49.30
4245;DHT22;2136;48.502;9.194;2024-03-23T11:36:38;13.10;50.10
4245;DHT22;2136;48.502;9.194;2024-03-23T11:39:12;13.00;50.00
4245;DHT22;2136;48.502;9.194;2024-03-23T11:41:47;12.80;50.00
4245;DHT22;2136;48.502;9.194;2024-03-23T11:44:17;12.60;50.20
4245;DHT22;2136;48.502;9.194;2024-03-23T11:46:43;12.60;51.20
4245;DHT22;2136;48.502;9.194;2024-03-23T11:49:28;12.40;50.80
4245;DHT22;2136;48.502;9.194;2024-03-23T11:51:55;12.20;50.60
4245;DHT22;2136;48.502;9.194;2024-03-23T11:54:23;12.10;50.90
4245;DHT22;2136;48.502;9.194;2024-03-23T11:56:58;12.00;50.80
4245;DHT22;2136;48.502;9.194;2024-03-23T11:59:33;11.90;50.50
4245;DHT22;2136;48.502;9.194;2024-03-23T12:01:59;11.80;50.50
4245;DHT22;2136;48.502;9.194;2024-03-23T12:04:26;11.70;50.50
4245;DHT22;2136;48.502;9.194;2024-03-23T12:07:11;11.60;50.60
4245;DHT22;2136;48.502;9.194;2024-03-23T12:09:38;11.40;50.40
4245;DHT22;2136;48.502;9.194;2024-03-23T12:12:14;11.30;50.50
4245;DHT22;2136;48.502;9.194;2024-03-23T12:14:42;11.10;51.10
4245;DHT22;2136;48.502;9.194;2024-03-23T12:17:09;11.00;51.30
4245;DHT22;2136;48.502;9.194;2024-03-23T12:19:36;10.90;51.40
4245;DHT22;2136;48.502;9.194;2024-03-23T12:22:03;10.70;51.40
4245;DHT22;2136;48.502;9.194;2024-03-23T12:24:30;10.60;51.70
4245;DHT22;2136;48.502;9.194;2024-03-23T12:27:00;10.50;52.10
4245;DHT22;2136;48.502;9.194;2024-03-23T12:29:29;10.30;52.50
4245;DHT22;2136;48.502;9.194;2024-03-23T12:31:55;10.20;53.20
4245;DHT22;2136;48.502;9.194;2024-03-23T12:34:22;10.20;53.50
4245;DHT22;2136;48.502;9.194;2024-03-23T12:36:48;10.10;53.80
4245;DHT22;2136;48.502;9.194;2024-03-23T12:39:15;10.00;54.20
4245;DHT22;2136;48.502;9.194;2024-03-23T12:41:40;9.90;55.40
4245;DHT22;2136;48.502;9.194;2024-03-23T12:44:07;9.90;55.90
4245;DHT22;2136;48.502;9.194;2024-03-23T12:46:36;10.00;55.40
4245;DHT22;2136;48.502;9.194;2024-03-23T12:49:03;10.20;56.20
4245;DHT22;2136;48.502;9.194;2024-03-23T12:51:28;10.50;56.70
4245;DHT22;2136;48.502;9.194;2024-03-23T12:53:55;10.70;56.40
4245;DHT22;2136;48.502;9.194;2024-03-23T12:56:21;10.80;56.20
4245;DHT22;2136;48.502;9.194;2024-03-23T12:58:48;10.80;56.20
4245;DHT22;2136;48.502;9.194;2024-03-23T13:01:16;10.80;55.90
4245;DHT22;2136;48.502;9.194;2024-03-23T13:03:47;10.80;55.70
4245;DHT22;2136;48.502;9.194;2024-03-23T13:06:14;10.90;55.90
4245;DHT22;2136;48.502;9.194;2024-03-23T13:08:41;11.00;55.40
4245;DHT22;2136;48.502;9.194;2024-03-23T13:11:08;11.20;55.50
4245;DHT22;2136;48.502;9.194;2024-03-23T13:13:36;11.40;55.60
4245;DHT22;2136;48.502;9.194;2024-03-23T13:16:02;11.60;55.20
4245;DHT22;2136;48.502;9.194;2024-03-23T13:18:29;11.70;55.00
4245;DHT22;2136;48.502;9.194;2024-03-23T13:20:56;12.10;54.90
4245;DHT22;2136;48.502;9.194;2024-03-23T13:23:23;12.70;53.80
4245;DHT22;2136;48.502;9.194;2024-03-23T13:25:50;13.10;53.50
4245;DHT22;2136;48.502;9.194;2024-03-23T13:28:18;13.50;52.90
4245;DHT22;2136;48.502;9.194;2024-03-23T13:30:50;13.90;51.60
4245;DHT22;2136;48.502;9.194;2024-03-23T13:33:17;14.00;50.70
4245;DHT22;2136;48.502;9.194;2024-03-23T13:35:49;13.90;50.20
4245;DHT22;2136;48.502;9.194;2024-03-23T13:38:17;14.30;50.40
4245;DHT22;2136;48.502;9.194;2024-03-23T13:40:54;15.00;49.90
4245;DHT22;2136;48.502;9.194;2024-03-23T13:43:20;15.90;48.20
4245;DHT22;2136;48.502;9.194;2024-03-23T13:45:48;16.40;47.20
4245;DHT22;2136;48.502;9.194;2024-03-23T13:48:14;16.70;45.70
4245;DHT22;2136;48.502;9.194;2024-03-23T13:50:41;16.50;44.50
4245;DHT22;2136;48.502;9.194;2024-03-23T13:53:07;16.20;44.00
4245;DHT22;2136;48.502;9.194;2024-03-23T13:55:36;15.60;43.80
4245;DHT22;2136;48.502;9.194;2024-03-23T13:58:02;15.10;44.30
4245;DHT22;2136;48.502;9.194;2024-03-23T14:00:29;14.60;45.20
4245;DHT22;2136;48.502;9.194;2024-03-23T14:02:57;14.40;46.80
4245;DHT22;2136;48.502;9.194;2024-03-23T14:05:24;14.70;48.20
4245;DHT22;2136;48.502;9.194;2024-03-23T14:07:50;14.90;48.00
4245;DHT22;2136;48.502;9.194;2024-03-23T14:10:17;14.80;47.50
4245;DHT22;2136;48.502;9.194;2024-03-23T14:12:44;14.40;46.20
4245;DHT22;2136;48.502;9.194;2024-03-23T14:15:11;14.00;45.50
4245;DHT22;2136;48.502;9.194;2024-03-23T14:17:38;14.10;46.50
4245;DHT22;2136;48.502;9.194;2024-03-23T14:20:06;14.10;46.50
4245;DHT22;2136;48.502;9.194;2024-03-23T14:22:34;14.30;47.00
4245;DHT22;2136;48.502;9.194;2024-03-23T14:25:01;14.20;46.20
4245;DHT22;2136;48.502;9.194;2024-03-23T14:27:27;14.00;46.40
4245;DHT22;2136;48.502;9.194;2024-03-23T14:29:55;13.60;46.30
4245;DHT22;2136;48.502;9.194;2024-03-23T14:32:24;13.40;46.60
4245;DHT22;2136;48.502;9.194;2024-03-23T14:34:52;13.00;46.00
4245;DHT22;2136;48.502;9.194;2024-03-23T14:37:20;12.60;45.10
4245;DHT22;2136;48.502;9.194;2024-03-23T14:39:46;12.40;45.70
4245;DHT22;2136;48.502;9.194;2024-03-23T14:42:12;12.20;45.60
4245;DHT22;2136;48.502;9.194;2024-03-23T14:44:39;12.00;45.80
4245;DHT22;2136;48.502;9.194;2024-03-23T14:47:06;11.80;46.20
4245;DHT22;2136;48.502;9.194;2024-03-23T14:49:33;11.80;47.20
4245;DHT22;2136;48.502;9.194;2024-03-23T14:51:59;11.90;48.00
4245;DHT22;2136;48.502;9.194;2024-03-23T14:54:26;12.00;48.20
4245;DHT22;2136;48.502;9.194;2024-03-23T14:56:52;11.90;48.40
4245;DHT22;2136;48.502;9.194;2024-03-23T14:59:20;11.80;48.80
4245;DHT22;2136;48.502;9.194;2024-03-23T15:01:46;11.50;48.60
4245;DHT22;2136;48.502;9.194;2024-03-23T15:04:14;11.40;49.30
4245;DHT22;2136;48.502;9.194;2024-03-23T15:06:40;11.30;49.70
4245;DHT22;2136;48.502;9.194;2024-03-23T15:09:07;11.10;52.20
4245;DHT22;2136;48.502;9.194;2024-03-23T15:11:36;10.80;54.10
4245;DHT22;2136;48.502;9.194;2024-03-23T15:14:03;10.50;54.70
4245;DHT22;2136;48.502;9.194;2024-03-23T15:16:29;10.40;55.50
4245;DHT22;2136;48.502;9.194;2024-03-23T15:18:56;10.40;56.10
4245;DHT22;2136;48.502;9.194;2024-03-23T15:21:24;10.40;56.60
4245;DHT22;2136;48.502;9.194;2024-03-23T15:23:49;10.60;56.40
4245;DHT22;2136;48.502;9.194;2024-03-23T15:26:16;10.60;55.80
4245;DHT22;2136;48.502;9.194;2024-03-23T15:28:42;10.60;55.60
4245;DHT22;2136;48.502;9.194;2024-03-23T15:31:29;10.50;55.60
4245;DHT22;2136;48.502;9.194;2024-03-23T15:33:55;10.40;55.60
4245;DHT22;2136;48.502;9.194;2024-03-23T15:36:23;10.20;55.90
4245;DHT22;2136;48.502;9.194;2024-03-23T15:38:49;10.10;56.30
4245;DHT22;2136;48.502;9.194;2024-03-23T15:41:16;9.90;57.60
4245;DHT22;2136;48.502;9.194;2024-03-23T15:43:42;9.80;58.30
4245;DHT22;2136;48.502;9.194;2024-03-23T15:46:09;9.90;58.80
4245;DHT22;2136;48.502;9.194;2024-03-23T15:48:36;10.00;58.50
4245;DHT22;2136;48.502;9.194;2024-03-23T15:51:04;10.10;58.30
4245;DHT22;2136;48.502;9.194;2024-03-23T15:53:31;10.20;58.70
4245;DHT22;2136;48.502;9.194;2024-03-23T15:55:59;10.30;58.70
4245;DHT22;2136;48.502;9.194;2024-03-23T15:58:26;10.30;58.60
4245;DHT22;2136;48.502;9.194;2024-03-23T16:00:56;10.20;58.10
4245;DHT22;2136;48.502;9.194;2024-03-23T16:03:22;10.20;57.90
4245;DHT22;2136;48.502;9.194;2024-03-23T16:05:52;10.20;56.90
4245;DHT22;2136;48.502;9.194;2024-03-23T16:08:17;10.20;56.80
4245;DHT22;2136;48.502;9.194;2024-03-23T16:10:46;10.10;56.50
4245;DHT22;2136;48.502;9.194;2024-03-23T16:13:11;10.10;56.60
4245;DHT22;2136;48.502;9.194;2024-03-23T16:15:38;10.00;56.60
4245;DHT22;2136;48.502;9.194;2024-03-23T16:18:05;9.90;57.60
4245;DHT22;2136;48.502;9.194;2024-03-23T16:20:32;10.00;56.80
4245;DHT22;2136;48.502;9.194;2024-03-23T16:22:59;9.90;57.70
4245;DHT22;2136;48.502;9.194;2024-03-23T16:25:26;9.80;57.10
4245;DHT22;2136;48.502;9.194;2024-03-23T16:27:53;9.70;56.30
4245;DHT22;2136;48.502;9.194;2024-03-23T16:30:20;9.70;56.70
4245;DHT22;2136;48.502;9.194;2024-03-23T16:32:46;9.70;56.90
4245;DHT22;2136;48.502;9.194;2024-03-23T16:35:13;9.60;57.30
4245;DHT22;2136;48.502;9.194;2024-03-23T16:37:40;9.60;57.60
4245;DHT22;2136;48.502;9.194;2024-03-23T16:40:07;9.60;57.50
4245;DHT22;2136;48.502;9.194;2024-03-23T16:42:34;9.60;57.70
4245;DHT22;2136;48.502;9.194;2024-03-23T16:45:03;9.60;58.10
4245;DHT22;2136;48.502;9.194;2024-03-23T16:47:29;9.80;58.70
4245;DHT22;2136;48.502;9.194;2024-03-23T16:49:56;9.80;58.90
4245;DHT22;2136;48.502;9.194;2024-03-23T16:52:22;9.70;58.50
4245;DHT22;2136;48.502;9.194;2024-03-23T16:54:49;9.60;57.50
4245;DHT22;2136;48.502;9.194;2024-03-23T16:57:15;9.50;57.10